Time;durP1;ratioP1;P1;durP2;ratioP2;P2;SDS_P1;SDS_P2;PMS_P1;PMS_P2;Temp;Humidity;BMP_temperature;BMP_pressure;BME280_temperature;BME280_humidity;BME280_pressure;Samples;Min_cycle;Max_cycle;Signal;HPM_P1;HPM_P2
2021/11/08 00:01:15;;;;;;;13.43;2.95;;;6.70;99.90;;;;;;4984275;28;20039;-68
2021/11/08 00:03:46;;;;;;;17.88;3.03;;;6.70;99.90;;;;;;4966193;28;20034;-68
2021/11/08 00:06:16;;;;;;;15.23;2.72;;;6.70;99.90;;;;;;4983807;28;20030;-69
2021/11/08 00:08:44;;;;;;;12.18;2.22;;;6.70;99.90;;;;;;4983513;28;20106;-68
2021/11/08 00:11:12;;;;;;;9.93;2.58;;;6.70;99.90;;;;;;4967185;28;20030;-68
2021/11/08 00:13:40;;;;;;;11.98;2.40;;;6.70;99.90;;;;;;4983408;28;20031;-68
2021/11/08 00:16:27;;;;;;;8.50;1.92;;;6.70;99.90;;;;;;4984792;28;20027;-68
2021/11/08 00:21:47;;;;;;;12.52;2.30;;;6.70;99.90;;;;;;4980368;28;20026;-68
2021/11/08 00:24:23;;;;;;;11.48;3.08;;;6.70;99.90;;;;;;4964011;28;20408;-68
2021/11/08 00:26:51;;;;;;;17.60;3.03;;;6.70;99.90;;;;;;4981528;28;20101;-68
2021/11/08 00:29:19;;;;;;;25.17;4.35;;;6.70;99.90;;;;;;4981704;28;20107;-68
2021/11/08 00:31:47;;;;;;;13.40;3.65;;;6.70;99.90;;;;;;4981116;28;20023;-68
2021/11/08 00:34:14;;;;;;;15.90;3.85;;;6.70;99.90;;;;;;4981309;28;20055;-68
2021/11/08 00:36:43;;;;;;;15.13;3.13;;;6.70;99.90;;;;;;4980139;28;20019;-68
2021/11/08 00:39:10;;;;;;;16.85;3.22;;;6.70;99.90;;;;;;4980387;28;20030;-68
2021/11/08 00:41:38;;;;;;;17.65;3.55;;;6.70;99.90;;;;;;4980048;28;20030;-68
2021/11/08 00:44:05;;;;;;;13.70;2.45;;;6.70;99.90;;;;;;4979897;28;20047;-68
2021/11/08 00:46:33;;;;;;;12.10;2.90;;;6.70;99.90;;;;;;4980461;28;20030;-68
2021/11/08 00:49:00;;;;;;;13.98;3.25;;;6.70;99.90;;;;;;4962679;28;20034;-68
2021/11/08 00:51:28;;;;;;;11.25;3.05;;;6.70;99.90;;;;;;4980411;28;20031;-68
2021/11/08 00:53:56;;;;;;;16.40;3.58;;;6.70;99.90;;;;;;4980192;28;20030;-68
2021/11/08 00:56:24;;;;;;;16.30;3.90;;;6.70;99.90;;;;;;4980249;28;20157;-68
2021/11/08 00:58:52;;;;;;;12.07;3.10;;;6.70;99.90;;;;;;4980420;28;20102;-68
2021/11/08 01:01:21;;;;;;;17.13;3.33;;;6.70;99.90;;;;;;4964103;28;20033;-68
2021/11/08 01:03:50;;;;;;;15.25;2.83;;;6.70;99.90;;;;;;4980530;28;20027;-68
2021/11/08 01:06:19;;;;;;;21.30;3.83;;;6.70;99.90;;;;;;4963233;28;20446;-68
2021/11/08 01:08:47;;;;;;;24.17;3.20;;;6.70;99.90;;;;;;4980562;28;20022;-68
2021/11/08 01:11:15;;;;;;;18.77;3.97;;;6.70;99.90;;;;;;4980893;28;20041;-68
2021/11/08 01:13:45;;;;;;;16.05;3.33;;;6.70;99.90;;;;;;4981022;28;20051;-68
2021/11/08 01:16:13;;;;;;;16.88;2.55;;;6.70;99.90;;;;;;4980317;28;20042;-68
2021/11/08 01:18:41;;;;;;;14.98;4.00;;;6.70;99.90;;;;;;4979532;28;20070;-68
2021/11/08 01:21:09;;;;;;;12.70;4.03;;;6.70;99.90;;;;;;4979579;28;20390;-68
2021/11/08 01:23:36;;;;;;;15.35;3.03;;;6.70;99.90;;;;;;4979484;28;20018;-68
2021/11/08 01:26:09;;;;;;;15.18;4.03;;;6.70;99.90;;;;;;4979195;28;20027;-68
2021/11/08 01:28:41;;;;;;;12.15;3.20;;;6.70;99.90;;;;;;4979454;28;20375;-68
2021/11/08 01:31:11;;;;;;;22.75;3.42;;;6.70;99.90;;;;;;4979031;28;20023;-68
2021/11/08 01:33:41;;;;;;;13.38;2.95;;;6.70;99.90;;;;;;4979296;28;20033;-68
2021/11/08 01:36:16;;;;;;;24.95;4.57;;;6.70;99.90;;;;;;4979041;28;20061;-68
2021/11/08 01:38:47;;;;;;;12.40;2.92;;;6.70;99.90;;;;;;4979163;28;20446;-68
2021/11/08 01:41:24;;;;;;;17.88;3.78;;;6.70;99.90;;;;;;4979435;28;20027;-68
2021/11/08 01:43:52;;;;;;;15.77;2.88;;;6.70;99.90;;;;;;4979565;28;20399;-68
2021/11/08 01:46:21;;;;;;;19.23;3.40;;;6.70;99.90;;;;;;4979720;28;20033;-68
2021/11/08 01:48:50;;;;;;;20.02;3.60;;;6.70;99.90;;;;;;4980330;28;20027;-68
2021/11/08 01:51:18;;;;;;;17.05;2.95;;;6.70;99.90;;;;;;4979571;28;20423;-68
2021/11/08 01:53:46;;;;;;;16.40;3.10;;;6.60;99.90;;;;;;4980178;28;20027;-68
2021/11/08 01:56:14;;;;;;;17.90;3.38;;;6.60;99.90;;;;;;4962355;28;20082;-68
2021/11/08 01:58:41;;;;;;;9.00;2.17;;;6.60;99.90;;;;;;4979632;28;20511;-68
2021/11/08 02:01:09;;;;;;;19.15;3.05;;;6.50;99.90;;;;;;4978994;28;20034;-68
2021/11/08 02:03:36;;;;;;;14.32;2.45;;;6.50;99.90;;;;;;4978862;28;20030;-68
2021/11/08 02:06:04;;;;;;;12.63;2.92;;;6.50;99.90;;;;;;4979060;28;20033;-68
2021/11/08 02:08:32;;;;;;;15.02;3.83;;;6.50;99.90;;;;;;4978820;28;20027;-68
2021/11/08 02:10:59;;;;;;;8.05;2.85;;;6.50;99.90;;;;;;4978970;28;20057;-68
2021/11/08 02:13:26;;;;;;;16.08;2.80;;;6.50;99.90;;;;;;4978890;28;20370;-68
2021/11/08 02:15:54;;;;;;;20.65;3.88;;;6.50;99.90;;;;;;4961222;28;20027;-68
2021/11/08 02:18:23;;;;;;;11.35;2.80;;;6.50;99.90;;;;;;4961010;28;20423;-69
2021/11/08 02:20:52;;;;;;;8.02;2.40;;;6.50;99.90;;;;;;4978415;28;20388;-68
2021/11/08 02:23:22;;;;;;;24.63;3.25;;;6.50;99.90;;;;;;4978318;28;20061;-68
2021/11/08 02:25:54;;;;;;;20.63;4.15;;;6.50;99.90;;;;;;4978962;28;20037;-68
2021/11/08 02:28:22;;;;;;;12.90;2.90;;;6.50;99.90;;;;;;4979260;28;20019;-69
2021/11/08 02:30:54;;;;;;;24.30;4.40;;;6.50;99.90;;;;;;4979219;28;20323;-68
2021/11/08 02:33:25;;;;;;;18.13;3.22;;;6.50;99.90;;;;;;4978663;28;20097;-68
2021/11/08 02:35:59;;;;;;;15.30;3.40;;;6.50;99.90;;;;;;4978645;28;20027;-68
2021/11/08 02:38:31;;;;;;;13.63;2.47;;;6.50;99.90;;;;;;4978774;28;20438;-68
2021/11/08 02:41:00;;;;;;;17.67;4.20;;;6.50;99.90;;;;;;4962883;28;20042;-68
2021/11/08 02:43:29;;;;;;;13.10;3.28;;;6.50;99.90;;;;;;4977665;28;20177;-68
2021/11/08 02:46:07;;;;;;;10.73;2.78;;;6.50;99.90;;;;;;4978104;28;20027;-68
2021/11/08 02:48:42;;;;;;;20.48;4.18;;;6.40;99.90;;;;;;4978413;28;20069;-68
2021/11/08 02:53:40;;;;;;;19.15;3.63;;;6.40;99.90;;;;;;4977974;28;20027;-68
2021/11/08 02:56:10;;;;;;;12.35;3.00;;;6.40;99.90;;;;;;4977623;28;20034;-68
2021/11/08 02:58:39;;;;;;;13.65;2.58;;;6.40;99.90;;;;;;4977632;28;20027;-68
2021/11/08 03:01:08;;;;;;;22.50;4.43;;;6.40;99.90;;;;;;4977670;28;20022;-68
2021/11/08 03:03:40;;;;;;;16.13;4.03;;;6.40;99.90;;;;;;4960515;28;20532;-68
2021/11/08 03:06:21;;;;;;;15.15;3.67;;;6.40;99.90;;;;;;4977882;28;20372;-68
2021/11/08 03:08:51;;;;;;;22.73;3.47;;;6.40;99.90;;;;;;4979108;28;20019;-68
2021/11/08 03:11:20;;;;;;;22.27;4.18;;;6.40;99.90;;;;;;4961313;28;20027;-68
2021/11/08 03:13:59;;;;;;;15.05;3.30;;;6.40;99.90;;;;;;4979165;28;20114;-68
2021/11/08 03:16:42;;;;;;;21.35;4.43;;;6.40;99.90;;;;;;4978415;28;20031;-68
2021/11/08 03:19:30;;;;;;;16.42;3.63;;;6.40;99.90;;;;;;4978355;28;20076;-68
2021/11/08 03:22:00;;;;;;;16.67;3.63;;;6.40;99.90;;;;;;4978262;28;20038;-68
2021/11/08 03:24:39;;;;;;;33.75;5.78;;;6.30;99.90;;;;;;4978456;28;20030;-68
2021/11/08 03:27:26;;;;;;;22.98;3.45;;;6.30;99.90;;;;;;4977937;28;20026;-68
2021/11/08 03:29:55;;;;;;;16.00;3.65;;;6.30;99.90;;;;;;4978117;28;20069;-68
2021/11/08 03:32:23;;;;;;;17.23;4.90;;;6.30;99.90;;;;;;4977932;28;20096;-68
2021/11/08 03:35:00;;;;;;;17.35;3.97;;;6.30;99.90;;;;;;4977377;28;20037;-68
2021/11/08 03:37:33;;;;;;;15.38;3.70;;;6.30;99.90;;;;;;4977592;28;20023;-68
2021/11/08 03:40:01;;;;;;;20.30;4.03;;;6.30;99.90;;;;;;4960688;28;20033;-68
2021/11/08 03:42:29;;;;;;;18.65;3.72;;;6.20;99.90;;;;;;4960806;28;20018;-68
2021/11/08 03:44:56;;;;;;;15.82;3.88;;;6.20;99.90;;;;;;4977222;28;20043;-68
2021/11/08 03:47:24;;;;;;;19.77;4.40;;;6.20;99.90;;;;;;4977213;28;20037;-68
2021/11/08 03:49:50;;;;;;;19.15;4.25;;;6.20;99.90;;;;;;4960507;28;20427;-68
2021/11/08 03:52:20;;;;;;;20.50;4.53;;;6.20;99.90;;;;;;4978540;28;20034;-68
2021/11/08 03:54:47;;;;;;;18.30;4.70;;;6.20;99.90;;;;;;4979403;28;20030;-68
2021/11/08 03:57:14;;;;;;;14.25;3.75;;;6.30;99.90;;;;;;4982266;28;20023;-68
2021/11/08 03:59:42;;;;;;;26.55;4.32;;;6.30;99.90;;;;;;4981708;28;20050;-68
2021/11/08 04:02:09;;;;;;;12.63;3.72;;;6.30;99.90;;;;;;4981527;28;20035;-68
2021/11/08 04:04:37;;;;;;;15.25;4.35;;;6.30;99.90;;;;;;4981504;28;20027;-68
2021/11/08 04:07:04;;;;;;;23.33;5.95;;;6.30;99.90;;;;;;4981620;28;20419;-68
2021/11/08 04:09:32;;;;;;;21.80;5.80;;;6.40;99.90;;;;;;4964003;28;20030;-68
2021/11/08 04:12:00;;;;;;;17.23;5.40;;;6.40;99.90;;;;;;4981660;28;20320;-68
2021/11/08 04:14:28;;;;;;;17.98;4.93;;;6.30;99.90;;;;;;4980577;28;20046;-68
2021/11/08 04:16:55;;;;;;;17.35;4.30;;;6.40;99.90;;;;;;4980514;28;20023;-68
2021/11/08 04:19:28;;;;;;;25.88;4.78;;;6.40;99.90;;;;;;4980580;28;20025;-68
2021/11/08 04:22:00;;;;;;;18.77;5.05;;;6.40;99.90;;;;;;4980447;28;20034;-68
2021/11/08 04:24:28;;;;;;;21.08;5.18;;;6.40;99.90;;;;;;4980373;28;20026;-68
2021/11/08 04:26:55;;;;;;;19.50;4.60;;;6.40;99.90;;;;;;4980884;28;20033;-68
2021/11/08 04:29:23;;;;;;;19.75;5.20;;;6.40;99.90;;;;;;4981018;28;20057;-68
2021/11/08 04:31:52;;;;;;;12.38;4.55;;;6.40;99.90;;;;;;4963546;28;20450;-68
2021/11/08 04:37:08;;;;;;;11.75;4.38;;;6.50;99.90;;;;;;4981099;28;20028;-68
2021/11/08 04:39:54;;;;;;;17.33;4.65;;;6.50;99.90;;;;;;4981001;28;20416;-68
2021/11/08 04:42:39;;;;;;;18.75;4.75;;;6.50;99.90;;;;;;4980738;28;20035;-68
2021/11/08 04:50:35;;;;;;;19.35;5.65;;;6.50;99.90;;;;;;4980931;28;20442;-68
2021/11/08 04:53:19;;;;;;;21.85;5.28;;;6.50;99.90;;;;;;4980386;28;20371;-68
2021/11/08 05:23:34;;;;;;;20.65;4.10;;;6.30;99.90;;;;;;4980631;28;20065;-68
2021/11/08 05:31:12;;;;;;;;;;;6.30;99.90;;;;;;4980874;28;20030;-68
2021/11/08 05:33:39;;;;;;;18.25;3.78;;;6.20;99.90;;;;;;4980450;28;19906;-68
2021/11/08 05:36:07;;;;;;;19.38;3.97;;;6.20;99.90;;;;;;4979509;28;20397;-68
2021/11/08 05:38:38;;;;;;;20.02;5.68;;;6.20;99.90;;;;;;4979090;28;20026;-68
2021/11/08 05:41:06;;;;;;;21.40;5.53;;;6.10;99.90;;;;;;4979217;28;20081;-68
2021/11/08 05:43:34;;;;;;;17.98;4.50;;;6.10;99.90;;;;;;4979051;28;20042;-68
2021/11/08 05:46:01;;;;;;;16.02;4.45;;;6.00;99.90;;;;;;4978863;28;20473;-68
2021/11/08 05:48:28;;;;;;;19.13;5.18;;;5.90;99.90;;;;;;4978750;28;20052;-68
2021/11/08 05:50:56;;;;;;;15.20;5.28;;;5.80;99.90;;;;;;4978908;28;20023;-68
2021/11/08 05:53:23;;;;;;;13.05;4.72;;;5.70;99.90;;;;;;4978689;28;20085;-68
2021/11/08 05:55:58;;;;;;;20.05;4.40;;;5.60;99.90;;;;;;4979274;28;20424;-68
2021/11/08 06:13:06;;;;;;;16.42;5.43;;;5.50;99.90;;;;;;4979532;28;20038;-68
2021/11/08 06:51:04;;;;;;;35.33;8.75;;;4.90;99.90;;;;;;4940606;29;20027;-68
2021/11/08 06:53:33;;;;;;;21.48;7.90;;;4.90;99.90;;;;;;4940753;29;20393;-68
2021/11/08 06:56:01;;;;;;;26.52;9.32;;;5.00;99.90;;;;;;4940683;29;20031;-68
2021/11/08 06:58:30;;;;;;;24.73;8.73;;;5.10;99.90;;;;;;4940103;29;20046;-73
2021/11/08 07:00:58;;;;;;;27.55;8.38;;;5.10;99.90;;;;;;4939718;29;20062;-73
2021/11/08 07:03:25;;;;;;;26.73;8.82;;;5.20;99.90;;;;;;4939379;29;20024;-72
2021/11/08 07:05:53;;;;;;;27.08;9.25;;;5.30;99.90;;;;;;4938135;29;20032;-73
2021/11/08 07:08:20;;;;;;;30.17;8.70;;;5.40;99.90;;;;;;4939909;29;20024;-73
2021/11/08 07:10:48;;;;;;;27.95;10.02;;;5.40;99.90;;;;;;4939110;29;20035;-73
2021/11/08 07:13:15;;;;;;;22.90;9.95;;;5.50;99.90;;;;;;4938148;29;20123;-73
2021/11/08 07:15:43;;;;;;;27.20;8.63;;;5.60;99.90;;;;;;4939156;29;20055;-73
2021/11/08 07:18:10;;;;;;;24.55;9.13;;;5.70;99.90;;;;;;4939706;29;20032;-74
2021/11/08 07:20:37;;;;;;;18.25;8.15;;;5.80;99.90;;;;;;4939143;29;20082;-72
2021/11/08 07:23:05;;;;;;;24.23;8.23;;;5.80;99.90;;;;;;4938960;29;20027;-72
2021/11/08 07:25:33;;;;;;;25.42;9.13;;;5.90;99.90;;;;;;4938907;29;20086;-73
2021/11/08 07:28:04;;;;;;;24.63;9.32;;;6.00;99.90;;;;;;4940526;29;20404;-74
2021/11/08 07:30:35;;;;;;;22.45;7.97;;;6.00;99.90;;;;;;4942284;29;20438;-73
2021/11/08 07:33:03;;;;;;;22.23;8.55;;;6.10;99.90;;;;;;4942734;29;20047;-73
2021/11/08 07:35:31;;;;;;;31.08;10.43;;;6.20;99.90;;;;;;4943977;29;20031;-73
2021/11/08 07:37:58;;;;;;;18.55;8.57;;;6.20;99.90;;;;;;4944006;29;20027;-70
2021/11/08 07:40:26;;;;;;;27.90;8.73;;;6.20;99.90;;;;;;4943743;29;20107;-70
2021/11/08 07:42:54;;;;;;;31.30;9.98;;;6.30;99.90;;;;;;4943705;29;20404;-70
2021/11/08 07:45:24;;;;;;;25.80;7.93;;;6.30;99.90;;;;;;4978026;28;20051;-69
2021/11/08 07:47:51;;;;;;;25.80;8.40;;;6.40;99.90;;;;;;4980786;28;20125;-68
2021/11/08 07:50:20;;;;;;;35.75;18.77;;;6.30;99.90;;;;;;4980868;28;20029;-72
2021/11/08 07:52:47;;;;;;;29.70;8.15;;;6.40;99.90;;;;;;4981003;28;20061;-72
2021/11/08 07:55:15;;;;;;;23.88;8.02;;;6.40;99.90;;;;;;4981683;28;20066;-72
2021/11/08 07:57:42;;;;;;;24.23;8.98;;;6.40;99.90;;;;;;4980894;28;20026;-70
2021/11/08 08:00:11;;;;;;;23.42;8.57;;;6.40;99.90;;;;;;4981437;28;20023;-70
2021/11/08 08:02:38;;;;;;;24.42;8.38;;;6.50;99.90;;;;;;4981302;28;20027;-69
2021/11/08 08:05:06;;;;;;;27.05;9.60;;;6.50;99.90;;;;;;4981023;28;20018;-70
2021/11/08 08:07:34;;;;;;;28.98;10.43;;;6.60;99.90;;;;;;4981637;28;20019;-69
2021/11/08 08:10:03;;;;;;;30.15;9.45;;;6.70;99.90;;;;;;4964695;28;20327;-69
2021/11/08 08:12:31;;;;;;;17.80;7.50;;;6.70;99.90;;;;;;4964440;28;20037;-69
2021/11/08 08:14:59;;;;;;;26.38;8.77;;;6.70;99.90;;;;;;4981757;28;20031;-70
2021/11/08 08:17:26;;;;;;;24.65;9.82;;;6.80;99.90;;;;;;4964328;28;20114;-69
2021/11/08 08:19:54;;;;;;;30.63;9.40;;;6.90;99.90;;;;;;4981522;28;20023;-69
2021/11/08 08:22:24;;;;;;;30.30;9.30;;;7.00;99.90;;;;;;4981576;28;20027;-69
2021/11/08 08:24:52;;;;;;;28.35;8.35;;;7.10;99.90;;;;;;4981422;28;20054;-69
2021/11/08 08:27:19;;;;;;;21.85;8.40;;;7.20;99.90;;;;;;4980422;28;20050;-69
2021/11/08 08:29:48;;;;;;;24.42;9.50;;;7.20;99.90;;;;;;4980888;28;20077;-70
2021/11/08 08:32:17;;;;;;;25.50;9.23;;;7.30;99.90;;;;;;4980291;28;20046;-71
2021/11/08 08:34:45;;;;;;;25.00;8.38;;;7.40;99.90;;;;;;4980350;28;20419;-69
2021/11/08 08:37:13;;;;;;;27.08;9.20;;;7.40;99.90;;;;;;4963085;28;20121;-69
2021/11/08 08:39:41;;;;;;;31.33;8.85;;;7.50;99.90;;;;;;4980776;28;20094;-70
2021/11/08 08:42:09;;;;;;;26.80;9.18;;;7.50;99.90;;;;;;4979493;28;20027;-70
2021/11/08 08:44:37;;;;;;;20.20;8.40;;;7.40;99.90;;;;;;4980219;28;20356;-67
2021/11/08 08:47:04;;;;;;;20.25;8.18;;;7.40;99.90;;;;;;4980533;28;20106;-68
2021/11/08 08:49:32;;;;;;;24.27;8.98;;;7.40;99.90;;;;;;4963810;28;20110;-68
2021/11/08 08:51:59;;;;;;;15.57;7.18;;;7.40;99.90;;;;;;4980823;28;20030;-68
2021/11/08 08:54:26;;;;;;;22.00;8.23;;;7.40;99.90;;;;;;4981512;28;20027;-68
2021/11/08 08:56:54;;;;;;;12.38;6.70;;;7.40;99.90;;;;;;4981297;28;20033;-67
2021/11/08 08:59:25;;;;;;;23.48;8.68;;;7.40;99.90;;;;;;4980749;28;20038;-68
2021/11/08 09:01:54;;;;;;;27.38;8.95;;;7.40;99.90;;;;;;4980660;28;20033;-68
2021/11/08 09:04:22;;;;;;;18.67;9.05;;;7.40;99.90;;;;;;4980433;28;20077;-68
2021/11/08 09:06:49;;;;;;;20.30;9.20;;;7.50;99.90;;;;;;4980569;28;20022;-68
2021/11/08 09:09:17;;;;;;;26.38;10.30;;;7.50;99.90;;;;;;4979739;28;20015;-68
2021/11/08 09:11:44;;;;;;;23.58;8.95;;;7.60;99.90;;;;;;4980139;28;20026;-67
2021/11/08 09:14:12;;;;;;;23.50;8.48;;;7.70;99.90;;;;;;4979540;28;20335;-71
2021/11/08 09:16:40;;;;;;;25.05;7.95;;;7.80;99.90;;;;;;4979702;28;20158;-70
2021/11/08 09:19:08;;;;;;;25.35;8.43;;;7.90;99.90;;;;;;4979314;28;20553;-68
2021/11/08 09:21:36;;;;;;;23.90;8.65;;;8.00;99.90;;;;;;4979857;28;20113;-68
2021/11/08 09:24:06;;;;;;;28.10;9.18;;;8.20;99.90;;;;;;4962195;28;20027;-70
2021/11/08 09:26:35;;;;;;;19.67;6.53;;;8.30;99.90;;;;;;4979156;28;20027;-69
2021/11/08 09:29:05;;;;;;;28.90;8.65;;;8.50;99.90;;;;;;4979270;28;20019;-70
2021/11/08 09:31:33;;;;;;;21.75;8.05;;;8.60;99.90;;;;;;4980346;28;20031;-68
2021/11/08 09:34:05;;;;;;;23.52;8.80;;;8.80;99.90;;;;;;4980679;28;20419;-68
2021/11/08 09:36:35;;;;;;;26.27;7.90;;;8.90;99.90;;;;;;4979786;28;20059;-68
2021/11/08 09:39:09;;;;;;;23.50;7.38;;;9.00;99.90;;;;;;4979967;28;20097;-68
2021/11/08 09:41:37;;;;;;;20.13;8.65;;;9.10;99.90;;;;;;4980202;28;20312;-67
2021/11/08 09:44:08;;;;;;;20.80;8.52;;;9.10;99.90;;;;;;4979816;28;20114;-67
2021/11/08 09:46:36;;;;;;;20.98;8.23;;;9.10;99.90;;;;;;4979697;28;20022;-68
2021/11/08 09:49:06;;;;;;;26.70;8.23;;;9.10;99.90;;;;;;4979732;28;20029;-68
2021/11/08 09:51:42;;;;;;;27.63;8.07;;;9.10;99.90;;;;;;4979352;28;20027;-67
2021/11/08 09:54:10;;;;;;;;;;;9.10;99.90;;;;;;4979111;28;20030;-68
2021/11/08 09:56:52;;;;;;;22.60;7.65;;;9.10;99.90;;;;;;4979222;28;20275;-68
2021/11/08 09:59:21;;;;;;;17.45;7.63;;;9.20;99.90;;;;;;4979145;28;20034;-68
2021/11/08 10:01:51;;;;;;;24.45;7.65;;;9.20;99.90;;;;;;4961757;28;20035;-67
2021/11/08 10:04:20;;;;;;;17.48;7.35;;;9.20;99.90;;;;;;4978502;28;20023;-70
2021/11/08 10:06:49;;;;;;;21.00;7.93;;;9.30;99.90;;;;;;4978483;28;20023;-68
2021/11/08 10:09:22;;;;;;;23.73;8.77;;;9.30;99.90;;;;;;4978414;28;20022;-70
2021/11/08 10:11:50;;;;;;;20.13;7.60;;;9.30;99.90;;;;;;4978375;28;20027;-70
2021/11/08 10:14:19;;;;;;;20.25;8.60;;;9.30;99.90;;;;;;4961961;28;20081;-69
2021/11/08 10:16:48;;;;;;;19.98;7.55;;;9.20;99.90;;;;;;4979762;28;20106;-69
2021/11/08 10:19:27;;;;;;;24.90;7.85;;;9.20;99.90;;;;;;4979034;28;20419;-69
2021/11/08 10:21:56;;;;;;;22.92;7.22;;;9.20;99.90;;;;;;4961902;28;20035;-70
2021/11/08 10:24:30;;;;;;;16.70;6.50;;;9.20;99.90;;;;;;4979065;28;20058;-69
2021/11/08 10:27:08;;;;;;;17.83;7.05;;;9.20;99.90;;;;;;4979616;28;20015;-70
2021/11/08 10:29:41;;;;;;;22.35;8.13;;;9.20;99.90;;;;;;4979222;28;20031;-70
2021/11/08 10:32:10;;;;;;;21.63;7.65;;;9.30;99.90;;;;;;4978985;28;20023;-70
2021/11/08 10:34:57;;;;;;;24.27;9.77;;;9.30;99.90;;;;;;4978033;28;20027;-69
2021/11/08 10:40:49;;;;;;;21.83;7.57;;;9.40;99.90;;;;;;4978286;28;20081;-68
2021/11/08 10:43:33;;;;;;;25.85;9.30;;;9.50;99.90;;;;;;4977421;28;20027;-69
2021/11/08 10:46:06;;;;;;;22.30;9.13;;;9.50;99.90;;;;;;4960581;28;20057;-68
2021/11/08 10:48:38;;;;;;;31.48;10.63;;;9.60;99.90;;;;;;4977849;28;20105;-68
2021/11/08 10:51:08;;;;;;;26.80;9.73;;;9.60;99.90;;;;;;4977803;28;20014;-68
2021/11/08 10:53:48;;;;;;;27.77;9.32;;;9.70;99.90;;;;;;4977776;28;20027;-69
2021/11/08 10:56:27;;;;;;;22.42;8.18;;;9.70;99.90;;;;;;4978130;28;20110;-69
2021/11/08 10:58:57;;;;;;;23.40;8.95;;;9.70;99.90;;;;;;4978787;28;20106;-68
2021/11/08 11:01:32;;;;;;;24.80;9.50;;;9.70;99.90;;;;;;4961264;28;20082;-69
2021/11/08 11:04:05;;;;;;;19.27;8.68;;;9.70;99.90;;;;;;4977900;28;20482;-68
2021/11/08 11:06:50;;;;;;;29.50;8.90;;;9.70;99.90;;;;;;4978997;28;20030;-69
2021/11/08 11:09:24;;;;;;;26.77;8.30;;;9.60;99.90;;;;;;4978747;28;20077;-68
2021/11/08 11:12:16;;;;;;;20.80;8.50;;;9.70;99.90;;;;;;4961331;28;20031;-66
2021/11/08 11:15:08;;;;;;;28.10;9.07;;;9.80;99.90;;;;;;4978535;28;20081;-69
2021/11/08 11:17:42;;;;;;;24.80;8.05;;;9.70;99.90;;;;;;4978432;28;20027;-71
2021/11/08 11:20:24;;;;;;;26.25;7.70;;;9.70;99.90;;;;;;4977843;28;20035;-69
2021/11/08 11:23:05;;;;;;;21.75;7.65;;;9.60;99.90;;;;;;4978022;28;20407;-68
2021/11/08 11:25:38;;;;;;;19.30;7.93;;;9.60;99.90;;;;;;4978087;28;20023;-68
2021/11/08 11:28:06;;;;;;;19.80;6.93;;;9.60;99.90;;;;;;4978017;28;20046;-68
2021/11/08 11:30:37;;;;;;;26.83;8.25;;;9.60;99.90;;;;;;4977893;28;20034;-68
2021/11/08 11:33:14;;;;;;;27.83;7.88;;;9.70;99.90;;;;;;4977366;28;20300;-68
2021/11/08 11:35:48;;;;;;;25.27;9.07;;;9.70;99.90;;;;;;4977399;28;20384;-71
2021/11/08 11:38:28;;;;;;;23.70;8.15;;;9.80;99.90;;;;;;4977312;28;20438;-71
2021/11/08 11:41:05;;;;;;;19.75;7.75;;;9.90;99.90;;;;;;4978462;28;20114;-70
2021/11/08 11:43:39;;;;;;;19.60;7.05;;;9.90;99.90;;;;;;4978687;28;20027;-69
2021/11/08 11:46:12;;;;;;;18.67;6.38;;;9.90;99.90;;;;;;4978029;28;20054;-75
2021/11/08 11:48:40;;;;;;;18.42;6.35;;;10.00;99.90;;;;;;4978653;28;20046;-70
2021/11/08 11:51:14;;;;;;;15.73;6.15;;;10.00;99.90;;;;;;4978587;28;20031;-68
2021/11/08 11:53:43;;;;;;;14.73;5.60;;;9.90;99.90;;;;;;4978331;28;20027;-69
2021/11/08 11:56:10;;;;;;;19.20;6.22;;;9.90;99.90;;;;;;4978383;28;20035;-68
2021/11/08 11:58:38;;;;;;;17.10;5.90;;;9.80;99.90;;;;;;4978468;28;20408;-68
2021/11/08 12:01:09;;;;;;;17.63;5.97;;;9.80;99.90;;;;;;4959975;28;20081;-68
2021/11/08 12:03:38;;;;;;;15.88;5.43;;;9.70;99.90;;;;;;4977396;28;20085;-68
2021/11/08 12:06:06;;;;;;;16.17;5.55;;;9.60;99.90;;;;;;4977161;28;20082;-68
2021/11/08 12:08:37;;;;;;;16.90;4.97;;;9.60;99.90;;;;;;4977679;28;20023;-68
2021/11/08 12:11:10;;;;;;;19.85;5.70;;;9.60;99.90;;;;;;4977055;28;20328;-68
2021/11/08 12:13:54;;;;;;;16.25;6.10;;;9.70;99.90;;;;;;4977791;28;20021;-68
2021/11/08 12:16:28;;;;;;;19.92;5.68;;;9.70;99.90;;;;;;4978852;28;20027;-68
2021/11/08 12:18:59;;;;;;;16.88;5.65;;;9.80;99.90;;;;;;4980684;28;20027;-68
2021/11/08 12:21:32;;;;;;;22.50;6.93;;;9.80;99.90;;;;;;4980454;28;20478;-69
2021/11/08 12:24:01;;;;;;;19.83;5.50;;;9.90;99.90;;;;;;4964164;28;20494;-68
2021/11/08 12:26:32;;;;;;;17.58;5.43;;;9.90;99.90;;;;;;4981323;28;20029;-68
2021/11/08 12:29:13;;;;;;;19.45;5.28;;;9.80;99.90;;;;;;4981964;28;20074;-68
2021/11/08 12:31:40;;;;;;;20.08;5.13;;;9.80;99.90;;;;;;4981309;28;20025;-68
2021/11/08 12:34:13;;;;;;;13.60;5.85;;;9.80;99.90;;;;;;4981619;28;20031;-69
2021/11/08 12:36:54;;;;;;;13.07;4.03;;;9.80;99.90;;;;;;4981067;28;20030;-70
2021/11/08 12:39:22;;;;;;;13.63;4.32;;;9.90;99.90;;;;;;4981754;28;20360;-69
2021/11/08 12:42:00;;;;;;;13.82;3.95;;;9.90;99.90;;;;;;4980859;28;20069;-69
2021/11/08 12:44:45;;;;;;;9.88;2.35;;;10.10;99.90;;;;;;4980203;28;20057;-70
2021/11/08 12:47:16;;;;;;;13.25;2.58;;;10.10;99.90;;;;;;4980542;28;20102;-68
2021/11/08 12:49:52;;;;;;;10.10;3.80;;;10.20;99.90;;;;;;4980112;28;20102;-69
2021/11/08 12:52:24;;;;;;;12.32;2.85;;;10.20;99.90;;;;;;4979873;28;20022;-69
2021/11/08 12:54:55;;;;;;;9.00;3.17;;;10.20;99.90;;;;;;4979881;28;20030;-68
2021/11/08 12:57:25;;;;;;;20.27;3.40;;;10.20;99.90;;;;;;4979769;28;20349;-68
2021/11/08 13:00:07;;;;;;;12.00;2.72;;;10.20;99.90;;;;;;4980290;28;20034;-68
2021/11/08 13:02:51;;;;;;;9.85;2.63;;;10.20;99.90;;;;;;4979654;28;20035;-68
2021/11/08 13:05:38;;;;;;;10.77;2.53;;;10.20;99.90;;;;;;4980067;28;20030;-68
2021/11/08 13:08:17;;;;;;;;;;;10.20;99.90;;;;;;4981172;28;20033;-68
2021/11/08 13:11:05;;;;;;;14.30;2.72;;;10.20;99.90;;;;;;4981103;28;20026;-69
2021/11/08 13:13:34;;;;;;;8.20;1.83;;;10.20;99.90;;;;;;4980456;28;20019;-68
2021/11/08 13:16:11;;;;;;;8.60;2.47;;;10.30;99.90;;;;;;4980956;28;20035;-68
2021/11/08 13:18:41;;;;;;;8.15;2.88;;;10.40;99.90;;;;;;4980489;28;20023;-68
2021/11/08 13:21:11;;;;;;;9.10;2.38;;;10.40;99.90;;;;;;4963252;28;20058;-68
2021/11/08 13:23:40;;;;;;;13.18;2.22;;;10.50;99.90;;;;;;4980315;28;20027;-69
2021/11/08 13:26:10;;;;;;;11.65;2.08;;;10.60;99.90;;;;;;4979495;28;20023;-74
2021/11/08 13:28:37;;;;;;;7.25;2.17;;;10.60;99.90;;;;;;4961762;28;20059;-68
2021/11/08 13:31:15;;;;;;;10.77;1.85;;;10.70;99.90;;;;;;4979150;28;20023;-70
2021/11/08 13:33:49;;;;;;;7.00;2.17;;;10.70;99.90;;;;;;4979201;28;20026;-71
2021/11/08 13:36:17;;;;;;;6.97;1.42;;;10.90;99.90;;;;;;4979686;28;20085;-70
2021/11/08 13:38:49;;;;;;;11.88;1.80;;;11.00;99.90;;;;;;4962109;28;20053;-70
2021/11/08 13:41:19;;;;;;;11.93;1.73;;;11.00;99.90;;;;;;4979038;28;20424;-70
2021/11/08 13:43:52;;;;;;;5.18;1.23;;;11.10;99.90;;;;;;4978920;28;20030;-70
2021/11/08 13:46:26;;;;;;;10.13;2.08;;;11.10;99.90;;;;;;4978635;28;20046;-70
2021/11/08 13:48:59;;;;;;;6.05;0.95;;;11.10;99.90;;;;;;4962356;28;20023;-70
2021/11/08 13:51:31;;;;;;;14.88;1.50;;;11.10;99.90;;;;;;4979773;28;20034;-69
2021/11/08 13:54:07;;;;;;;11.57;1.42;;;11.00;99.90;;;;;;4979751;28;20027;-69
2021/11/08 13:56:43;;;;;;;10.15;1.48;;;10.90;99.90;;;;;;4962514;28;20030;-70
2021/11/08 13:59:14;;;;;;;5.82;1.90;;;10.80;99.90;;;;;;4979864;28;20027;-70
2021/11/08 14:01:44;;;;;;;4.80;1.10;;;10.70;99.90;;;;;;4980066;28;20118;-70
2021/11/08 14:04:13;;;;;;;7.60;1.33;;;10.70;99.90;;;;;;4979545;28;20031;-70
2021/11/08 14:06:43;;;;;;;9.10;1.17;;;10.70;99.90;;;;;;4979942;28;20033;-70
2021/11/08 14:09:21;;;;;;;8.43;1.33;;;10.70;99.90;;;;;;4978707;28;20044;-69
2021/11/08 14:11:54;;;;;;;6.57;0.88;;;10.60;99.90;;;;;;4979034;28;20023;-69
2021/11/08 14:14:30;;;;;;;8.15;1.40;;;10.60;99.90;;;;;;4978380;28;20085;-70
2021/11/08 14:17:32;;;;;;;11.25;1.52;;;10.60;99.90;;;;;;4961149;28;20022;-70
2021/11/08 14:20:06;;;;;;;13.45;1.23;;;10.50;99.90;;;;;;4978426;28;20416;-70
2021/11/08 14:22:37;;;;;;;10.68;1.35;;;10.40;99.90;;;;;;4978680;28;20054;-71
2021/11/08 14:25:07;;;;;;;9.07;1.73;;;10.40;99.90;;;;;;4961051;28;20462;-71
2021/11/08 14:27:40;;;;;;;7.80;1.35;;;10.30;99.90;;;;;;4978699;28;20347;-71
2021/11/08 14:30:17;;;;;;;11.82;1.95;;;10.30;99.90;;;;;;4978320;28;20458;-72
2021/11/08 14:32:47;;;;;;;6.55;1.60;;;10.30;99.90;;;;;;4979520;28;20034;-72
2021/11/08 14:35:18;;;;;;;8.57;1.77;;;10.30;99.90;;;;;;4978907;28;20025;-72
2021/11/08 14:40:42;;;;;;;8.88;1.60;;;10.20;99.90;;;;;;4978076;28;20023;-70
2021/11/08 14:43:21;;;;;;;6.20;1.20;;;10.20;99.90;;;;;;4979275;28;20085;-70
2021/11/08 14:46:05;;;;;;;16.23;1.83;;;10.20;99.90;;;;;;4958286;29;20047;-70
2021/11/08 14:48:36;;;;;;;10.63;1.73;;;10.20;99.90;;;;;;4959828;28;20031;-70
2021/11/08 14:51:09;;;;;;;6.88;1.48;;;10.20;99.90;;;;;;4959562;28;20316;-73